createdAt,value
2022-12-15T00:00:35.102Z,32.50
2022-12-15T00:03:06.336Z,30.60
2022-12-15T00:05:32.806Z,30.73
2022-12-15T00:08:06.910Z,30.17
2022-12-15T00:10:33.653Z,28.43
2022-12-15T00:13:00.193Z,29.43
2022-12-15T00:15:26.835Z,29.73
2022-12-15T00:17:53.441Z,29.80
2022-12-15T00:20:20.084Z,33.20
2022-12-15T00:22:46.654Z,31.10
2022-12-15T00:25:13.056Z,30.53
2022-12-15T00:27:39.716Z,32.60
2022-12-15T00:30:07.160Z,32.07
2022-12-15T00:32:34.034Z,29.43
2022-12-15T00:35:00.411Z,32.70
2022-12-15T00:37:26.928Z,31.37
2022-12-15T00:39:53.215Z,32.20
2022-12-15T00:42:19.737Z,30.87
2022-12-15T00:44:46.098Z,31.17
2022-12-15T00:47:12.551Z,31.97
2022-12-15T00:49:39.092Z,30.47
2022-12-15T00:52:06.611Z,32.20
2022-12-15T00:54:32.963Z,31.77
2022-12-15T00:56:59.535Z,31.27
2022-12-15T00:59:25.932Z,31.93
2022-12-15T01:01:52.603Z,30.13
2022-12-15T01:04:19.089Z,30.33
2022-12-15T01:06:45.544Z,31.97
2022-12-15T01:09:13.544Z,30.40
2022-12-15T01:11:40.034Z,31.67
2022-12-15T01:14:06.680Z,30.10
2022-12-15T01:16:33.170Z,31.37
2022-12-15T01:18:59.581Z,31.30
2022-12-15T01:21:26.177Z,30.30
2022-12-15T01:23:52.950Z,30.83
2022-12-15T01:26:19.703Z,31.23
2022-12-15T01:28:46.179Z,32.27
2022-12-15T01:31:12.963Z,29.37
2022-12-15T01:33:39.834Z,34.33
2022-12-15T01:36:06.357Z,32.50
2022-12-15T01:38:32.826Z,30.93
2022-12-15T01:41:02.671Z,31.33
2022-12-15T01:43:33.253Z,31.27
2022-12-15T01:46:12.098Z,31.17
2022-12-15T01:48:46.689Z,31.77
2022-12-15T01:51:22.863Z,30.40
2022-12-15T01:54:18.132Z,31.47
2022-12-15T01:56:48.428Z,30.57
2022-12-15T01:59:20.999Z,31.48
2022-12-15T02:01:50.038Z,30.97
2022-12-15T02:04:19.513Z,29.67
2022-12-15T02:06:45.894Z,29.60
2022-12-15T02:09:12.554Z,29.70
2022-12-15T02:11:43.391Z,28.90
2022-12-15T02:16:55.907Z,28.37
2022-12-15T02:19:51.566Z,29.80
2022-12-15T02:22:33.946Z,28.00
2022-12-15T02:25:28.373Z,29.37
2022-12-15T02:28:11.662Z,28.60
2022-12-15T02:30:56.563Z,28.57
2022-12-15T02:33:30.016Z,31.27
2022-12-15T02:36:15.398Z,31.10
2022-12-15T02:38:41.927Z,30.77
2022-12-15T02:41:36.160Z,30.77
2022-12-15T02:44:19.978Z,30.33
2022-12-15T02:46:55.221Z,33.47
2022-12-15T02:49:33.467Z,28.33
2022-12-15T02:52:22.993Z,31.20
2022-12-15T02:55:12.696Z,29.70
2022-12-15T02:57:56.620Z,30.20
2022-12-15T03:00:23.182Z,29.47
2022-12-15T03:02:53.552Z,32.33
2022-12-15T03:05:22.179Z,31.13
2022-12-15T03:07:53.579Z,29.00
2022-12-15T03:10:23.128Z,28.93
2022-12-15T03:12:49.687Z,32.00
2022-12-15T03:15:17.273Z,29.30
2022-12-15T03:17:43.604Z,29.63
2022-12-15T03:20:10.892Z,30.70
2022-12-15T03:22:38.284Z,31.37
2022-12-15T03:25:05.397Z,31.10
2022-12-15T03:27:31.796Z,31.57
2022-12-15T03:29:58.231Z,33.90
2022-12-15T03:32:24.672Z,30.77
2022-12-15T03:34:51.265Z,31.53
2022-12-15T03:37:17.974Z,32.17
2022-12-15T03:39:44.473Z,30.53
2022-12-15T03:42:10.821Z,29.30
2022-12-15T03:44:37.439Z,32.97
2022-12-15T03:47:06.237Z,31.40
2022-12-15T03:49:32.898Z,30.07
2022-12-15T03:51:59.312Z,30.13
2022-12-15T03:54:25.773Z,30.00
2022-12-15T03:56:52.130Z,29.20
2022-12-15T03:59:18.887Z,28.97
2022-12-15T04:01:47.416Z,31.40
2022-12-15T04:04:13.906Z,31.10
2022-12-15T04:06:40.376Z,29.90
2022-12-15T04:09:06.904Z,28.20
2022-12-15T04:11:33.430Z,29.73
2022-12-15T04:13:59.967Z,29.27
2022-12-15T04:16:26.665Z,29.53
2022-12-15T04:18:53.242Z,29.40
2022-12-15T04:21:19.745Z,29.57
2022-12-15T04:23:47.155Z,29.63
2022-12-15T04:26:13.668Z,30.60
2022-12-15T04:28:40.254Z,29.20
2022-12-15T04:31:10.837Z,30.20
2022-12-15T04:33:39.941Z,30.20
2022-12-15T04:36:09.357Z,28.07
2022-12-15T04:38:35.992Z,29.27
2022-12-15T04:41:02.449Z,32.07
2022-12-15T04:43:29.382Z,29.27
2022-12-15T04:45:57.053Z,29.97
2022-12-15T04:48:23.590Z,29.43
2022-12-15T04:50:50.093Z,30.77
2022-12-15T04:53:18.139Z,30.43
2022-12-15T04:55:44.612Z,30.87
2022-12-15T04:58:11.252Z,30.97
2022-12-15T05:00:37.985Z,30.43
2022-12-15T05:03:10.331Z,31.00
2022-12-15T05:05:38.869Z,30.40
2022-12-15T05:08:05.280Z,30.47
2022-12-15T05:10:31.694Z,31.60
2022-12-15T05:13:08.270Z,32.10
2022-12-15T05:15:35.648Z,31.90
2022-12-15T05:18:02.300Z,31.47
2022-12-15T05:20:28.745Z,30.07
2022-12-15T05:22:56.426Z,31.13
2022-12-15T05:25:23.000Z,31.40
2022-12-15T05:27:49.374Z,29.33
2022-12-15T05:30:15.801Z,30.23
2022-12-15T05:32:42.509Z,32.20
2022-12-15T05:35:08.903Z,30.93
2022-12-15T05:37:35.329Z,30.77
2022-12-15T05:40:01.954Z,31.77
2022-12-15T05:42:28.511Z,29.50
2022-12-15T05:44:54.934Z,29.00
2022-12-15T05:47:21.602Z,29.83
2022-12-15T05:49:47.923Z,30.10
2022-12-15T05:52:14.413Z,29.57
2022-12-15T05:54:41.060Z,32.07
2022-12-15T05:57:07.391Z,29.83
2022-12-15T05:59:33.896Z,29.70
2022-12-15T06:02:00.342Z,30.27
2022-12-15T06:04:26.865Z,27.47
2022-12-15T06:06:53.502Z,28.37
2022-12-15T06:09:20.078Z,26.97
2022-12-15T06:11:46.959Z,30.50
2022-12-15T06:14:13.607Z,28.73
2022-12-15T06:16:50.128Z,30.93
2022-12-15T06:19:17.722Z,29.63
2022-12-15T06:21:44.047Z,28.40
2022-12-15T06:24:10.736Z,28.10
2022-12-15T06:26:38.647Z,29.77
2022-12-15T06:29:09.329Z,28.30
2022-12-15T06:31:37.137Z,28.00
2022-12-15T06:34:06.306Z,29.50
2022-12-15T06:36:33.072Z,28.17
2022-12-15T06:39:00.997Z,29.33
2022-12-15T06:41:29.847Z,28.87
2022-12-15T06:43:56.682Z,30.87
2022-12-15T06:46:24.308Z,32.60
2022-12-15T06:48:50.924Z,30.63
2022-12-15T06:51:18.064Z,29.07
2022-12-15T06:53:45.031Z,28.77
2022-12-15T06:56:35.075Z,28.90
2022-12-15T06:59:06.141Z,28.80
2022-12-15T07:01:35.365Z,28.77
2022-12-15T07:04:02.441Z,27.40
2022-12-15T07:06:34.269Z,28.63
2022-12-15T07:09:00.718Z,29.03
2022-12-15T07:11:27.412Z,29.50
2022-12-15T07:13:54.374Z,28.43
2022-12-15T07:16:22.947Z,30.20
2022-12-15T07:18:49.603Z,29.00
2022-12-15T07:21:16.604Z,29.80
2022-12-15T07:23:59.176Z,29.23
2022-12-15T07:26:27.856Z,29.63
2022-12-15T07:28:54.741Z,30.70
2022-12-15T07:31:22.719Z,31.37
2022-12-15T07:33:49.500Z,30.40
2022-12-15T07:36:16.386Z,31.70
2022-12-15T07:38:42.883Z,32.13
2022-12-15T07:41:10.132Z,32.57
2022-12-15T07:43:37.961Z,30.77
2022-12-15T07:46:05.563Z,29.63
2022-12-15T07:48:32.575Z,30.27
2022-12-15T07:51:07.286Z,31.70
2022-12-15T07:53:36.154Z,31.97
2022-12-15T07:56:07.909Z,31.80
2022-12-15T07:58:36.005Z,31.53
2022-12-15T08:01:05.244Z,28.70
2022-12-15T08:03:32.911Z,30.30
2022-12-15T08:06:06.686Z,31.90
2022-12-15T08:08:34.584Z,28.93
2022-12-15T08:11:06.141Z,30.53
2022-12-15T08:16:20.752Z,30.93
2022-12-15T08:18:47.326Z,31.17
2022-12-15T08:21:13.699Z,30.43
2022-12-15T08:23:40.053Z,30.00
2022-12-15T08:26:09.656Z,30.73
2022-12-15T08:28:37.786Z,27.97
2022-12-15T08:31:13.248Z,27.43
2022-12-15T08:33:39.929Z,32.53
2022-12-15T08:36:10.477Z,27.60
2022-12-15T08:38:38.965Z,29.75
2022-12-15T08:41:15.999Z,27.33
2022-12-15T08:43:48.199Z,28.83
2022-12-15T08:46:21.244Z,30.03
2022-12-15T08:48:47.952Z,31.43
2022-12-15T08:51:15.453Z,29.90
2022-12-15T08:53:42.362Z,31.00
2022-12-15T08:56:11.428Z,31.97
2022-12-15T08:58:38.756Z,30.90
2022-12-15T09:01:07.990Z,31.17
2022-12-15T09:03:35.893Z,30.00
2022-12-15T09:06:04.349Z,31.17
2022-12-15T09:08:31.053Z,29.10
2022-12-15T09:10:58.588Z,28.50
2022-12-15T09:13:25.438Z,27.97
2022-12-15T09:16:09.531Z,25.77
2022-12-15T09:18:36.675Z,25.43
2022-12-15T09:21:04.784Z,25.50
2022-12-15T09:23:32.405Z,25.43
2022-12-15T09:26:07.376Z,24.43
2022-12-15T09:28:34.592Z,23.77
2022-12-15T09:31:06.108Z,24.70
2022-12-15T09:33:34.405Z,24.73
2022-12-15T09:36:01.731Z,24.17
2022-12-15T09:38:28.173Z,23.87
2022-12-15T09:40:54.634Z,22.60
2022-12-15T09:43:46.588Z,21.93
2022-12-15T09:46:30.866Z,21.27
2022-12-15T09:49:02.225Z,22.50
2022-12-15T09:51:54.430Z,22.60
2022-12-15T09:54:23.971Z,21.77
2022-12-15T09:56:55.793Z,24.67
2022-12-15T09:59:26.301Z,23.17
2022-12-15T10:02:13.742Z,22.85
2022-12-15T10:06:06.145Z,23.63
2022-12-15T10:08:23.845Z,23.30
2022-12-15T10:10:55.097Z,23.00
2022-12-15T10:14:13.125Z,24.43
2022-12-15T10:17:05.700Z,23.00
2022-12-15T10:19:41.206Z,24.33
2022-12-15T10:22:14.327Z,22.50
2022-12-15T10:27:46.431Z,24.33
2022-12-15T10:30:16.052Z,23.40
2022-12-15T10:32:59.481Z,24.80
2022-12-15T10:35:32.209Z,23.60
2022-12-15T10:38:01.079Z,23.10
2022-12-15T10:40:50.802Z,21.93
2022-12-15T10:43:42.060Z,22.73
2022-12-15T10:48:39.217Z,23.33
2022-12-15T10:51:16.482Z,22.80
2022-12-15T10:53:52.101Z,23.37
2022-12-15T10:56:32.804Z,23.17
2022-12-15T10:59:31.635Z,23.20
2022-12-15T11:02:27.868Z,23.37
2022-12-15T11:05:01.752Z,22.20
2022-12-15T11:07:55.779Z,22.00
2022-12-15T11:10:25.702Z,21.83
2022-12-15T11:13:12.988Z,20.33
2022-12-15T11:15:43.343Z,20.37
2022-12-15T11:18:43.224Z,20.23
2022-12-15T11:21:12.540Z,23.40
2022-12-15T11:24:09.738Z,22.30
2022-12-15T11:26:48.824Z,20.07
2022-12-15T11:29:21.446Z,20.33
2022-12-15T11:31:50.160Z,19.63
2022-12-15T11:34:39.034Z,22.20
2022-12-15T11:40:33.233Z,20.70
2022-12-15T11:43:21.471Z,21.67
2022-12-15T11:46:16.683Z,20.73
2022-12-15T11:48:58.164Z,21.00
2022-12-15T11:51:36.481Z,22.60
2022-12-15T11:54:10.163Z,20.23
2022-12-15T11:56:47.589Z,20.57
2022-12-15T11:59:34.341Z,21.77
2022-12-15T12:02:19.396Z,21.73
2022-12-15T12:05:13.851Z,18.93
2022-12-15T12:07:53.193Z,18.47
2022-12-15T12:10:33.099Z,18.70
2022-12-15T12:13:14.945Z,17.40
2022-12-15T12:15:54.773Z,18.77
2022-12-15T12:18:52.023Z,16.97
2022-12-15T12:21:24.790Z,17.40
2022-12-15T12:24:01.291Z,17.67
2022-12-15T12:26:56.035Z,17.33
2022-12-15T12:29:34.422Z,19.23
2022-12-15T12:32:28.054Z,19.00
2022-12-15T12:35:31.112Z,19.47
2022-12-15T12:38:03.282Z,20.13
2022-12-15T12:40:55.207Z,22.53
2022-12-15T12:46:15.177Z,19.07
2022-12-15T12:49:00.331Z,21.37
2022-12-15T12:51:30.475Z,21.40
2022-12-15T12:53:58.944Z,20.70
2022-12-15T12:56:48.695Z,19.73
2022-12-15T12:59:29.308Z,19.73
2022-12-15T13:01:57.824Z,19.98
2022-12-15T13:04:30.199Z,20.63
2022-12-15T13:07:33.361Z,23.27
2022-12-15T13:10:21.243Z,20.67
2022-12-15T13:12:58.743Z,23.53
2022-12-15T13:15:28.404Z,22.37
2022-12-15T13:18:16.715Z,24.23
2022-12-15T13:20:45.538Z,23.33
2022-12-15T13:23:21.386Z,22.13
2022-12-15T13:25:55.523Z,20.90
2022-12-15T13:28:31.529Z,21.77
2022-12-15T13:31:13.129Z,20.40
2022-12-15T13:33:51.220Z,22.27
2022-12-15T13:36:39.492Z,22.73
2022-12-15T13:39:11.802Z,22.13
2022-12-15T13:42:32.205Z,22.93
2022-12-15T13:44:51.369Z,21.77
2022-12-15T13:47:25.219Z,23.08
2022-12-15T13:50:01.419Z,21.20
2022-12-15T13:53:17.101Z,23.03
2022-12-15T13:55:45.937Z,22.00
2022-12-15T13:58:18.627Z,23.60
2022-12-15T14:00:56.659Z,23.30
2022-12-15T14:03:23.886Z,24.17
2022-12-15T14:05:53.295Z,24.33
2022-12-15T14:08:21.770Z,25.40
2022-12-15T14:10:54.193Z,22.80
2022-12-15T14:13:24.862Z,23.87
2022-12-15T14:15:56.021Z,21.52
2022-12-15T14:18:37.812Z,23.00
2022-12-15T14:21:34.767Z,21.43
2022-12-15T14:24:36.975Z,22.90
2022-12-15T14:26:47.662Z,22.77
2022-12-15T14:29:18.246Z,23.43
2022-12-15T14:31:49.466Z,24.83
2022-12-15T14:34:39.822Z,23.53
2022-12-15T14:37:11.739Z,22.53
2022-12-15T14:39:44.350Z,22.03
2022-12-15T14:42:29.518Z,25.07
2022-12-15T14:44:58.055Z,23.67
2022-12-15T14:47:24.886Z,23.93
2022-12-15T14:49:51.497Z,23.70
2022-12-15T14:52:31.938Z,22.83
2022-12-15T14:55:01.693Z,24.17
2022-12-15T14:57:43.353Z,23.67
2022-12-15T15:00:28.092Z,23.73
2022-12-15T15:03:04.785Z,21.50
2022-12-15T15:03:19.176Z,22.23
2022-12-15T15:05:57.920Z,22.83
2022-12-15T15:08:32.667Z,24.63
2022-12-15T15:11:04.130Z,23.03
2022-12-15T15:13:40.452Z,24.57
2022-12-15T15:16:15.907Z,26.47
2022-12-15T15:18:43.239Z,24.50
2022-12-15T15:21:17.013Z,25.13
2022-12-15T15:24:01.404Z,25.70
2022-12-15T15:26:29.766Z,27.27
2022-12-15T15:28:57.780Z,24.57
2022-12-15T15:31:40.948Z,24.40
2022-12-15T15:34:08.533Z,24.63
2022-12-15T15:36:37.854Z,27.20
2022-12-15T15:39:12.507Z,24.13
2022-12-15T15:41:39.092Z,24.13
2022-12-15T15:44:12.208Z,25.00
2022-12-15T15:46:52.176Z,25.10
2022-12-15T15:49:21.817Z,23.93
2022-12-15T15:51:48.771Z,24.70
2022-12-15T15:54:19.164Z,23.93
2022-12-15T15:56:45.692Z,24.35
2022-12-15T15:59:17.903Z,22.33
2022-12-15T16:01:46.924Z,23.70
2022-12-15T16:04:13.486Z,25.10
2022-12-15T16:06:46.686Z,22.50
2022-12-15T16:09:15.488Z,22.03
2022-12-15T16:11:42.194Z,23.97
2022-12-15T16:14:16.809Z,23.17
2022-12-15T16:16:43.964Z,22.20
2022-12-15T16:19:10.425Z,23.13
2022-12-15T16:21:36.830Z,21.87
2022-12-15T16:24:11.058Z,23.53
2022-12-15T16:26:37.479Z,21.40
2022-12-15T16:29:13.892Z,21.10
2022-12-15T16:31:42.015Z,20.57
2022-12-15T16:34:08.791Z,19.23
2022-12-15T16:36:35.363Z,21.00
2022-12-15T16:39:02.027Z,20.83
2022-12-15T16:41:28.763Z,19.63
2022-12-15T16:43:55.405Z,19.97
2022-12-15T16:46:22.030Z,21.07
2022-12-15T16:48:48.632Z,18.03
2022-12-15T16:51:52.557Z,19.13
2022-12-15T16:54:31.171Z,19.53
2022-12-15T16:56:59.771Z,19.87
2022-12-15T16:59:35.748Z,20.33
2022-12-15T17:02:28.186Z,20.13
2022-12-15T17:04:55.144Z,19.77
2022-12-15T17:07:22.187Z,21.93
2022-12-15T17:09:50.661Z,19.63
2022-12-15T17:12:17.876Z,19.03
2022-12-15T17:14:45.126Z,19.93
2022-12-15T17:17:15.598Z,19.87
2022-12-15T17:19:57.798Z,19.67
2022-12-15T17:22:28.683Z,21.03
2022-12-15T17:24:55.340Z,19.63
2022-12-15T17:27:28.330Z,19.90
2022-12-15T17:30:00.750Z,19.83
2022-12-15T17:32:27.168Z,19.40
2022-12-15T17:34:53.693Z,21.73
2022-12-15T17:37:21.703Z,21.90
2022-12-15T17:39:48.175Z,21.13
2022-12-15T17:42:18.638Z,19.90
2022-12-15T17:44:45.884Z,20.75
2022-12-15T17:47:12.308Z,22.63
2022-12-15T17:49:39.321Z,20.40
2022-12-15T17:52:27.429Z,20.93
2022-12-15T17:54:55.336Z,22.83
2022-12-15T17:57:22.130Z,23.40
2022-12-15T17:59:48.729Z,19.87
2022-12-15T18:02:15.587Z,22.00
2022-12-15T18:04:42.949Z,20.43
2022-12-15T18:07:19.578Z,22.47
2022-12-15T18:09:46.668Z,22.33
2022-12-15T18:12:19.355Z,21.97
2022-12-15T18:14:47.367Z,22.13
2022-12-15T18:17:14.095Z,22.37
2022-12-15T18:19:40.534Z,23.37
2022-12-15T18:22:15.396Z,22.13
2022-12-15T18:24:41.900Z,23.43
2022-12-15T18:27:23.443Z,22.77
2022-12-15T18:29:50.289Z,23.47
2022-12-15T18:32:17.927Z,20.90
2022-12-15T18:34:44.567Z,20.83
2022-12-15T18:37:15.768Z,22.07
2022-12-15T18:39:42.138Z,22.07
2022-12-15T18:42:14.300Z,23.37
2022-12-15T18:44:43.967Z,24.77
2022-12-15T18:47:21.278Z,23.97
2022-12-15T18:49:47.968Z,24.23
2022-12-15T18:52:25.014Z,23.60
2022-12-15T18:54:53.086Z,22.80
2022-12-15T18:57:36.970Z,24.47
2022-12-15T19:00:09.352Z,25.37
2022-12-15T19:02:35.833Z,23.80
2022-12-15T19:05:02.343Z,26.93
2022-12-15T19:07:29.335Z,23.83
2022-12-15T19:09:55.889Z,25.83
2022-12-15T19:12:22.381Z,25.70
2022-12-15T19:14:51.205Z,22.87
2022-12-15T19:17:20.122Z,26.23
2022-12-15T19:19:46.498Z,23.53
2022-12-15T19:22:13.170Z,24.97
2022-12-15T19:24:40.706Z,22.17
2022-12-15T19:27:11.564Z,22.10
2022-12-15T19:32:05.597Z,21.23
2022-12-15T19:34:32.146Z,21.30
2022-12-15T19:36:59.667Z,23.27
2022-12-15T19:39:27.972Z,22.00
2022-12-15T19:41:54.658Z,21.33
2022-12-15T19:44:21.376Z,21.20
2022-12-15T19:46:47.918Z,21.53
2022-12-15T19:49:14.262Z,23.10
2022-12-15T19:51:40.918Z,22.37
2022-12-15T19:54:07.294Z,22.80
2022-12-15T19:56:33.732Z,21.27
2022-12-15T19:59:01.481Z,19.93
2022-12-15T20:01:27.908Z,21.73
2022-12-15T20:03:54.281Z,21.83
2022-12-15T20:06:24.181Z,23.57
2022-12-15T20:08:53.164Z,22.30
2022-12-15T20:11:24.922Z,21.65
2022-12-15T20:13:52.003Z,19.67
2022-12-15T20:16:19.032Z,21.80
2022-12-15T20:18:46.952Z,21.83
2022-12-15T20:21:19.184Z,22.27
2022-12-15T20:23:54.724Z,22.43
2022-12-15T20:26:22.098Z,21.83
2022-12-15T20:28:49.026Z,20.87
2022-12-15T20:31:18.563Z,21.13
2022-12-15T20:33:46.277Z,21.03
2022-12-15T20:36:19.897Z,22.80
2022-12-15T20:38:50.443Z,22.50
2022-12-15T20:41:27.485Z,23.02
2022-12-15T20:43:54.763Z,22.03
2022-12-15T20:46:27.432Z,22.43
2022-12-15T20:48:58.609Z,22.80
2022-12-15T20:51:30.840Z,21.43
2022-12-15T20:54:02.029Z,21.63
2022-12-15T20:56:28.964Z,21.13
2022-12-15T20:58:58.025Z,22.17
2022-12-15T21:01:29.683Z,22.87
2022-12-15T21:03:58.023Z,21.47
2022-12-15T21:06:26.046Z,22.67
2022-12-15T21:08:52.913Z,20.50
2022-12-15T21:11:32.404Z,22.77
2022-12-15T21:13:58.796Z,23.03
2022-12-15T21:16:28.063Z,22.03
2022-12-15T21:19:19.356Z,23.80
2022-12-15T21:21:45.403Z,21.37
2022-12-15T21:24:20.811Z,23.17
2022-12-15T21:26:47.278Z,24.93
2022-12-15T21:29:16.533Z,23.33
2022-12-15T21:31:43.458Z,22.53
2022-12-15T21:34:09.841Z,24.53
2022-12-15T21:36:37.852Z,24.70
2022-12-15T21:39:06.908Z,22.60
2022-12-15T21:41:34.212Z,23.67
2022-12-15T21:44:00.589Z,23.03
2022-12-15T21:46:28.210Z,21.80
2022-12-15T21:48:56.332Z,22.30
2022-12-15T21:51:22.948Z,22.63
2022-12-15T21:53:49.314Z,23.27
2022-12-15T21:56:18.531Z,23.40
2022-12-15T21:58:46.477Z,23.67
2022-12-15T22:01:14.220Z,24.87
2022-12-15T22:03:44.465Z,22.13
2022-12-15T22:06:17.924Z,21.92
2022-12-15T22:08:44.460Z,22.43
2022-12-15T22:11:26.696Z,23.90
2022-12-15T22:13:55.295Z,23.83
2022-12-15T22:16:22.781Z,24.07
2022-12-15T22:18:53.254Z,23.10
2022-12-15T22:21:22.293Z,24.20
2022-12-15T22:23:48.933Z,22.33
2022-12-15T22:26:23.817Z,22.00
2022-12-15T22:28:51.643Z,23.13
2022-12-15T22:31:18.532Z,24.20
2022-12-15T22:33:45.171Z,23.67
2022-12-15T22:36:11.666Z,24.17
2022-12-15T22:38:38.046Z,23.57
2022-12-15T22:41:06.346Z,24.87
2022-12-15T22:43:39.180Z,23.50
2022-12-15T22:46:09.544Z,24.30
2022-12-15T22:48:38.806Z,23.85
2022-12-15T22:51:06.418Z,23.40
2022-12-15T22:53:35.014Z,25.03
2022-12-15T22:56:04.981Z,23.30
2022-12-15T22:58:36.869Z,24.08
2022-12-15T23:01:05.449Z,23.23
2022-12-15T23:03:33.310Z,25.53
2022-12-15T23:06:02.019Z,23.63
2022-12-15T23:08:30.225Z,24.23
2022-12-15T23:10:57.030Z,25.30
2022-12-15T23:13:23.515Z,24.10
2022-12-15T23:15:51.067Z,25.20
2022-12-15T23:18:18.678Z,25.13
2022-12-15T23:20:45.224Z,24.47
2022-12-15T23:23:11.582Z,23.73
2022-12-15T23:25:38.142Z,26.27
2022-12-15T23:28:04.802Z,24.67
2022-12-15T23:30:31.326Z,24.70
2022-12-15T23:32:57.731Z,24.83
2022-12-15T23:35:24.473Z,27.23
2022-12-15T23:37:51.095Z,24.17
2022-12-15T23:40:17.883Z,23.97
2022-12-15T23:42:44.232Z,26.37
2022-12-15T23:45:11.143Z,26.93
2022-12-15T23:47:37.511Z,27.27
2022-12-15T23:50:04.405Z,29.60
2022-12-15T23:52:31.298Z,26.63
2022-12-15T23:54:57.680Z,26.13
2022-12-15T23:57:24.537Z,26.13
2022-12-15T23:59:50.966Z,26.87
